createdAt,value
2023-01-13T00:00:30.621Z,76.13
2023-01-13T00:02:33.546Z,76.54
2023-01-13T00:04:36.454Z,75.83
2023-01-13T00:06:39.253Z,75.46
2023-01-13T00:08:42.117Z,75.09
2023-01-13T00:10:48.510Z,75.03
2023-01-13T00:12:51.665Z,74.56
2023-01-13T00:14:54.392Z,74.34
2023-01-13T00:16:57.116Z,73.92
2023-01-13T00:18:59.814Z,73.55
2023-01-13T00:21:07.225Z,73.42
2023-01-13T00:23:09.930Z,73.06
2023-01-13T00:25:12.934Z,72.64
2023-01-13T00:27:15.663Z,71.93
2023-01-13T00:29:18.485Z,72.14
2023-01-13T00:31:21.810Z,71.27
2023-01-13T00:33:25.553Z,71.39
2023-01-13T00:35:28.241Z,71.58
2023-01-13T00:37:31.048Z,71.09
2023-01-13T00:39:33.778Z,70.45
2023-01-13T00:41:55.117Z,70.44
2023-01-13T00:43:57.978Z,69.46
2023-01-13T00:46:01.092Z,69.71
2023-01-13T00:48:03.944Z,69.57
2023-01-13T00:50:06.829Z,69.51
2023-01-13T00:52:09.576Z,69.35
2023-01-13T00:54:12.336Z,69.55
2023-01-13T00:56:16.863Z,68.73
2023-01-13T00:58:20.856Z,68.32
2023-01-13T01:00:23.669Z,68.84
2023-01-13T01:02:26.459Z,68.04
2023-01-13T01:04:29.230Z,67.67
2023-01-13T01:06:32.062Z,67.65
2023-01-13T01:08:36.024Z,66.63
2023-01-13T01:10:38.749Z,67.03
2023-01-13T01:12:41.425Z,66.35
2023-01-13T01:14:44.231Z,67.27
2023-01-13T01:16:47.023Z,66.83
2023-01-13T01:18:51.505Z,66.65
2023-01-13T01:20:54.262Z,66.49
2023-01-13T01:22:56.911Z,66.39
2023-01-13T01:24:59.962Z,66.22
2023-01-13T01:27:02.664Z,65.83
2023-01-13T01:29:05.331Z,66.17
2023-01-13T01:31:13.386Z,65.84
2023-01-13T01:33:17.065Z,65.38
2023-01-13T01:35:19.712Z,65.68
2023-01-13T01:37:22.457Z,66.13
2023-01-13T01:39:25.350Z,65.49
2023-01-13T01:41:30.632Z,64.99
2023-01-13T01:44:00.151Z,64.22
2023-01-13T01:46:03.641Z,65.14
2023-01-13T01:48:07.429Z,64.70
2023-01-13T01:50:10.972Z,64.41
2023-01-13T01:52:36.291Z,64.29
2023-01-13T01:54:47.076Z,64.56
2023-01-13T01:56:50.745Z,64.82
2023-01-13T01:58:54.469Z,64.11
2023-01-13T02:00:57.265Z,64.24
2023-01-13T02:03:01.690Z,63.83
2023-01-13T02:05:04.889Z,64.24
2023-01-13T02:07:08.446Z,64.07
2023-01-13T02:09:11.921Z,64.10
2023-01-13T02:11:50.283Z,64.09
2023-01-13T02:13:53.388Z,64.05
2023-01-13T02:16:17.565Z,63.77
2023-01-13T02:18:38.835Z,64.10
2023-01-13T02:20:50.548Z,64.52
2023-01-13T02:23:34.372Z,64.79
2023-01-13T02:26:00.952Z,64.28
2023-01-13T02:28:27.639Z,64.79
2023-01-13T02:31:04.721Z,64.68
2023-01-13T02:33:36.281Z,65.18
2023-01-13T02:36:11.437Z,65.33
2023-01-13T02:38:16.859Z,65.19
2023-01-13T02:40:56.963Z,65.33
2023-01-13T02:43:37.117Z,65.18
2023-01-13T02:45:48.171Z,65.65
2023-01-13T02:47:55.974Z,64.73
2023-01-13T02:50:13.429Z,65.47
2023-01-13T02:52:36.915Z,64.95
2023-01-13T02:54:44.823Z,65.47
2023-01-13T02:56:53.549Z,65.36
2023-01-13T02:58:58.174Z,66.13
2023-01-13T03:01:01.104Z,65.78
2023-01-13T03:03:04.376Z,65.63
2023-01-13T03:05:07.626Z,65.96
2023-01-13T03:07:38.311Z,65.78
2023-01-13T03:09:50.842Z,66.24
2023-01-13T03:12:03.943Z,66.55
2023-01-13T03:14:30.579Z,66.44
2023-01-13T03:17:10.649Z,66.32
2023-01-13T03:19:39.731Z,66.24
2023-01-13T03:22:11.729Z,67.11
2023-01-13T03:24:23.005Z,66.63
2023-01-13T03:26:52.182Z,66.69
2023-01-13T03:29:09.384Z,66.83
2023-01-13T03:31:22.493Z,67.30
2023-01-13T03:33:34.685Z,67.39
2023-01-13T03:35:42.757Z,67.61
2023-01-13T03:37:52.743Z,67.20
2023-01-13T03:40:02.893Z,68.02
2023-01-13T03:42:15.722Z,68.30
2023-01-13T03:44:25.494Z,68.44
2023-01-13T03:46:43.585Z,68.13
2023-01-13T03:48:47.010Z,68.51
2023-01-13T03:50:52.596Z,68.72
2023-01-13T03:53:02.981Z,68.71
2023-01-13T03:55:13.517Z,68.89
2023-01-13T03:57:19.559Z,69.00
2023-01-13T03:59:28.402Z,68.98
2023-01-13T04:01:54.871Z,68.85
2023-01-13T04:04:05.249Z,69.09
2023-01-13T04:06:45.821Z,68.52
2023-01-13T04:09:03.454Z,69.09
2023-01-13T04:11:12.255Z,68.79
2023-01-13T04:13:22.386Z,69.34
2023-01-13T04:15:28.409Z,69.35
2023-01-13T04:17:32.228Z,70.07
2023-01-13T04:19:34.952Z,69.70
2023-01-13T04:21:37.787Z,70.78
2023-01-13T04:23:40.547Z,70.83
2023-01-13T04:25:44.133Z,70.99
2023-01-13T04:27:46.788Z,71.31
2023-01-13T04:29:49.522Z,71.56
2023-01-13T04:31:52.249Z,72.19
2023-01-13T04:33:55.033Z,72.56
2023-01-13T04:35:57.687Z,72.78
2023-01-13T04:38:06.113Z,72.95
2023-01-13T04:40:09.687Z,73.43
2023-01-13T04:42:13.860Z,73.68
2023-01-13T04:44:16.575Z,74.96
2023-01-13T04:46:19.389Z,74.84
2023-01-13T04:48:22.179Z,74.79
2023-01-13T04:50:25.367Z,75.10
2023-01-13T04:52:28.129Z,74.58
2023-01-13T04:54:30.794Z,74.20
2023-01-13T04:56:33.540Z,74.30
2023-01-13T04:58:36.257Z,74.77
2023-01-13T05:00:39.165Z,74.51
2023-01-13T05:02:42.061Z,74.26
2023-01-13T05:04:44.775Z,74.74
2023-01-13T05:06:47.535Z,75.44
2023-01-13T05:08:51.305Z,76.03
2023-01-13T05:10:53.996Z,75.53
2023-01-13T05:13:15.848Z,75.38
2023-01-13T05:15:37.570Z,76.70
2023-01-13T05:17:40.906Z,77.02
2023-01-13T05:19:43.569Z,77.31
2023-01-13T05:22:04.856Z,77.47
2023-01-13T05:24:28.266Z,77.35
2023-01-13T05:26:31.072Z,77.34
2023-01-13T05:28:35.255Z,77.69
2023-01-13T05:30:43.986Z,77.41
2023-01-13T05:32:46.793Z,77.57
2023-01-13T05:34:49.977Z,77.70
2023-01-13T05:36:52.653Z,77.40
2023-01-13T05:38:55.258Z,77.39
2023-01-13T05:41:18.802Z,76.54
2023-01-13T05:43:23.068Z,76.30
2023-01-13T05:45:26.094Z,77.00
2023-01-13T05:47:28.784Z,76.86
2023-01-13T05:49:31.421Z,76.91
2023-01-13T05:51:34.121Z,76.75
2023-01-13T05:53:37.046Z,76.72
2023-01-13T05:55:41.248Z,77.06
2023-01-13T05:57:43.985Z,77.17
2023-01-13T05:59:46.684Z,77.11
2023-01-13T06:01:49.422Z,77.47
2023-01-13T06:03:52.123Z,77.50
2023-01-13T06:05:59.052Z,77.76
2023-01-13T06:08:04.232Z,77.87
2023-01-13T06:10:07.801Z,78.24
2023-01-13T06:12:14.292Z,77.99
2023-01-13T06:14:16.945Z,77.92
2023-01-13T06:16:19.736Z,78.18
2023-01-13T06:18:22.395Z,77.92
2023-01-13T06:20:25.778Z,77.68
2023-01-13T06:22:32.990Z,76.67
2023-01-13T06:24:36.628Z,76.85
2023-01-13T06:26:41.706Z,76.54
2023-01-13T06:28:44.423Z,76.48
2023-01-13T06:30:53.257Z,76.60
2023-01-13T06:32:59.169Z,76.86
2023-01-13T06:35:06.979Z,77.54
2023-01-13T06:37:13.269Z,77.54
2023-01-13T06:39:20.506Z,77.82
2023-01-13T06:41:43.793Z,78.48
2023-01-13T06:43:46.938Z,78.13
2023-01-13T06:45:54.917Z,77.63
2023-01-13T06:48:00.205Z,78.70
2023-01-13T06:50:02.896Z,78.40
2023-01-13T06:52:06.717Z,78.18
2023-01-13T06:54:09.484Z,78.40
2023-01-13T06:56:12.100Z,78.19
2023-01-13T06:58:14.743Z,77.65
2023-01-13T07:00:17.913Z,77.68
2023-01-13T07:02:20.853Z,77.57
2023-01-13T07:04:23.685Z,76.39
2023-01-13T07:06:26.352Z,75.93
2023-01-13T07:08:29.127Z,75.70
2023-01-13T07:10:33.111Z,74.95
2023-01-13T07:12:59.436Z,74.84
2023-01-13T07:15:20.263Z,74.88
2023-01-13T07:17:25.513Z,73.27
2023-01-13T07:19:28.269Z,72.96
2023-01-13T07:21:30.992Z,72.44
2023-01-13T07:23:38.499Z,72.30
2023-01-13T07:25:41.176Z,71.95
2023-01-13T07:27:44.000Z,71.48
2023-01-13T07:29:46.741Z,71.43
2023-01-13T07:31:50.357Z,70.74
2023-01-13T07:33:53.185Z,70.42
2023-01-13T07:35:58.094Z,70.29
2023-01-13T07:38:00.803Z,69.83
2023-01-13T07:40:07.003Z,70.03
2023-01-13T07:42:28.612Z,69.69
2023-01-13T07:44:31.340Z,69.58
2023-01-13T07:46:34.276Z,68.92
2023-01-13T07:48:36.950Z,68.90
2023-01-13T07:50:40.176Z,68.72
2023-01-13T07:52:43.473Z,68.28
2023-01-13T07:54:46.260Z,67.63
2023-01-13T07:56:48.927Z,66.83
2023-01-13T07:58:53.129Z,66.96
2023-01-13T08:00:56.814Z,65.58
2023-01-13T08:03:00.844Z,65.96
2023-01-13T08:05:05.392Z,65.89
2023-01-13T08:07:08.252Z,66.48
2023-01-13T08:09:11.010Z,66.11
2023-01-13T08:11:14.027Z,65.56
2023-01-13T08:13:18.456Z,65.85
2023-01-13T08:15:21.218Z,65.92
2023-01-13T08:17:24.579Z,65.67
2023-01-13T08:19:27.231Z,64.48
2023-01-13T08:21:29.881Z,65.20
2023-01-13T08:23:32.675Z,65.49
2023-01-13T08:25:35.766Z,65.67
2023-01-13T08:27:38.742Z,64.78
2023-01-13T08:29:41.653Z,64.76
2023-01-13T08:31:44.773Z,65.49
2023-01-13T08:33:47.702Z,64.95
2023-01-13T08:35:52.870Z,64.77
2023-01-13T08:37:55.571Z,65.53
2023-01-13T08:39:58.281Z,64.99
2023-01-13T08:42:00.913Z,63.88
2023-01-13T08:44:04.017Z,64.13
2023-01-13T08:46:07.147Z,64.53
2023-01-13T08:48:09.915Z,64.12
2023-01-13T08:50:12.808Z,63.73
2023-01-13T08:52:16.513Z,64.40
2023-01-13T08:54:19.478Z,63.57
2023-01-13T08:56:22.161Z,63.46
2023-01-13T08:58:25.492Z,62.54
2023-01-13T09:00:28.215Z,63.66
2023-01-13T09:02:31.083Z,63.14
2023-01-13T09:04:33.848Z,63.57
2023-01-13T09:06:36.719Z,63.79
2023-01-13T09:08:39.494Z,63.62
2023-01-13T09:10:42.440Z,63.85
2023-01-13T09:13:03.712Z,64.40
2023-01-13T09:15:06.881Z,63.70
2023-01-13T09:17:09.634Z,64.25
2023-01-13T09:19:12.511Z,63.71
2023-01-13T09:21:15.787Z,63.89
2023-01-13T09:23:18.457Z,64.33
2023-01-13T09:25:21.212Z,64.09
2023-01-13T09:27:24.270Z,64.23
2023-01-13T09:29:27.021Z,63.82
2023-01-13T09:31:29.856Z,64.49
2023-01-13T09:33:58.739Z,64.34
2023-01-13T09:36:01.495Z,64.27
2023-01-13T09:38:04.399Z,64.45
2023-01-13T09:40:17.542Z,63.97
2023-01-13T09:43:04.873Z,64.18
2023-01-13T09:45:15.137Z,63.60
2023-01-13T09:47:31.234Z,64.71
2023-01-13T09:49:40.315Z,64.44
2023-01-13T09:51:49.528Z,64.77
2023-01-13T09:53:57.633Z,63.57
2023-01-13T09:56:01.066Z,65.12
2023-01-13T09:58:18.759Z,64.06
2023-01-13T10:00:24.504Z,63.82
2023-01-13T10:02:31.364Z,63.44
2023-01-13T10:04:34.235Z,63.52
2023-01-13T10:06:43.112Z,63.46
2023-01-13T10:08:48.429Z,63.17
2023-01-13T10:10:55.500Z,63.37
2023-01-13T10:13:17.243Z,63.05
2023-01-13T10:15:26.475Z,62.90
2023-01-13T10:17:39.631Z,63.21
2023-01-13T10:19:49.029Z,62.42
2023-01-13T10:22:09.248Z,63.24
2023-01-13T10:24:26.969Z,62.55
2023-01-13T10:27:03.418Z,61.96
2023-01-13T10:29:19.752Z,62.43
2023-01-13T10:31:24.225Z,62.08
2023-01-13T10:33:28.681Z,62.41
2023-01-13T10:35:52.187Z,61.73
2023-01-13T10:37:57.689Z,61.05
2023-01-13T10:40:03.034Z,61.86
2023-01-13T10:42:13.988Z,61.78
2023-01-13T10:44:18.972Z,62.28
2023-01-13T10:46:21.956Z,61.43
2023-01-13T10:48:34.065Z,61.77
2023-01-13T10:50:37.842Z,61.90
2023-01-13T10:52:55.866Z,61.89
2023-01-13T10:54:58.979Z,62.34
2023-01-13T10:57:21.480Z,61.36
2023-01-13T10:59:29.251Z,61.83
2023-01-13T11:01:32.318Z,62.40
2023-01-13T11:03:43.384Z,62.34
2023-01-13T11:05:58.671Z,63.01
2023-01-13T11:08:01.580Z,62.99
2023-01-13T11:10:27.689Z,62.39
2023-01-13T11:12:35.269Z,62.00
2023-01-13T11:14:47.330Z,62.55
2023-01-13T11:16:53.973Z,62.33
2023-01-13T11:19:14.421Z,63.00
2023-01-13T11:21:29.600Z,62.20
2023-01-13T11:23:42.815Z,62.79
2023-01-13T11:25:50.483Z,63.29
2023-01-13T11:28:19.990Z,63.78
2023-01-13T11:31:01.192Z,63.37
2023-01-13T11:33:15.738Z,63.55
2023-01-13T11:35:21.182Z,63.97
2023-01-13T11:37:38.756Z,63.76
2023-01-13T11:40:12.438Z,64.57
2023-01-13T11:42:31.746Z,65.20
2023-01-13T11:44:58.755Z,64.95
2023-01-13T11:47:02.518Z,64.77
2023-01-13T11:49:06.458Z,65.39
2023-01-13T11:51:15.558Z,66.00
2023-01-13T11:53:21.722Z,65.31
2023-01-13T11:55:40.651Z,65.59
2023-01-13T11:58:12.311Z,65.71
2023-01-13T12:00:33.747Z,66.43
2023-01-13T12:03:11.330Z,66.48
2023-01-13T12:05:38.606Z,66.76
2023-01-13T12:07:52.220Z,66.72
2023-01-13T12:10:10.364Z,66.36
2023-01-13T12:12:53.030Z,67.25
2023-01-13T12:15:24.264Z,67.11
2023-01-13T12:17:44.587Z,67.58
2023-01-13T12:19:52.211Z,67.42
2023-01-13T12:22:07.311Z,68.19
2023-01-13T12:24:39.249Z,68.52
2023-01-13T12:26:54.731Z,67.91
2023-01-13T12:29:06.944Z,67.94
2023-01-13T12:31:11.418Z,68.45
2023-01-13T12:33:23.860Z,68.29
2023-01-13T12:35:42.295Z,69.41
2023-01-13T12:37:57.509Z,68.71
2023-01-13T12:40:18.763Z,68.15
2023-01-13T12:42:45.871Z,68.22
2023-01-13T12:45:09.878Z,68.35
2023-01-13T12:47:43.813Z,68.32
2023-01-13T12:49:47.624Z,67.92
2023-01-13T12:51:53.098Z,68.55
2023-01-13T12:53:56.713Z,67.51
2023-01-13T12:56:22.362Z,67.69
2023-01-13T12:58:28.841Z,67.29
2023-01-13T13:00:32.723Z,68.01
2023-01-13T13:02:41.261Z,68.08
2023-01-13T13:04:50.112Z,67.77
2023-01-13T13:07:09.672Z,67.63
2023-01-13T13:09:27.645Z,68.44
2023-01-13T13:11:59.422Z,67.95
2023-01-13T13:14:06.104Z,68.06
2023-01-13T13:16:30.614Z,67.69
2023-01-13T13:18:33.692Z,67.49
2023-01-13T13:20:54.708Z,68.38
2023-01-13T13:22:57.388Z,68.07
2023-01-13T13:25:00.029Z,67.94
2023-01-13T13:27:37.761Z,68.64
2023-01-13T13:29:44.874Z,67.94
2023-01-13T13:32:11.331Z,67.75
2023-01-13T13:34:45.428Z,68.31
2023-01-13T13:36:49.841Z,68.98
2023-01-13T13:39:23.530Z,68.52
2023-01-13T13:41:45.672Z,69.12
2023-01-13T13:44:07.122Z,68.50
2023-01-13T13:46:49.008Z,68.92
2023-01-13T13:48:54.661Z,69.36
2023-01-13T13:51:02.891Z,68.99
2023-01-13T13:53:08.591Z,69.46
2023-01-13T13:55:20.478Z,68.50
2023-01-13T13:57:40.082Z,69.58
2023-01-13T13:59:42.857Z,69.69
2023-01-13T14:01:50.309Z,69.70
2023-01-13T14:04:33.742Z,68.77
2023-01-13T14:06:36.894Z,68.98
2023-01-13T14:08:46.712Z,69.94
2023-01-13T14:10:49.654Z,69.16
2023-01-13T14:12:53.020Z,69.66
2023-01-13T14:14:57.633Z,69.41
2023-01-13T14:17:00.604Z,68.88
2023-01-13T14:19:03.292Z,69.88
2023-01-13T14:21:24.423Z,69.66
2023-01-13T14:23:30.658Z,69.18
2023-01-13T14:25:40.212Z,69.90
2023-01-13T14:27:43.642Z,69.24
2023-01-13T14:29:46.661Z,69.70
2023-01-13T14:31:52.417Z,69.44
2023-01-13T14:33:57.802Z,68.95
2023-01-13T14:36:15.109Z,69.43
2023-01-13T14:38:17.835Z,68.78
2023-01-13T14:40:42.605Z,68.62
2023-01-13T14:42:46.934Z,69.44
2023-01-13T14:44:51.501Z,69.27
2023-01-13T14:46:56.779Z,69.07
2023-01-13T14:49:02.533Z,68.78
2023-01-13T14:51:25.920Z,69.14
2023-01-13T14:53:47.417Z,69.17
2023-01-13T14:55:50.432Z,68.80
2023-01-13T14:57:53.315Z,69.56
2023-01-13T15:00:05.042Z,69.87
2023-01-13T15:02:45.414Z,69.15
2023-01-13T15:04:48.106Z,69.37
2023-01-13T15:06:55.260Z,69.64
2023-01-13T15:08:57.927Z,69.52
2023-01-13T15:11:08.602Z,69.37
2023-01-13T15:13:29.219Z,69.60
2023-01-13T15:15:34.882Z,69.39
2023-01-13T15:17:38.782Z,69.64
2023-01-13T15:19:41.536Z,69.87
2023-01-13T15:21:46.937Z,70.57
2023-01-13T15:23:50.136Z,70.09
2023-01-13T15:25:53.048Z,69.60
2023-01-13T15:28:00.213Z,69.66
2023-01-13T15:30:25.703Z,70.16
2023-01-13T15:32:29.645Z,70.20
2023-01-13T15:34:32.386Z,70.44
2023-01-13T15:36:38.484Z,70.19
2023-01-13T15:38:42.807Z,69.83
2023-01-13T15:40:46.459Z,70.13
2023-01-13T15:43:07.438Z,70.01
2023-01-13T15:45:32.248Z,70.31
2023-01-13T15:47:35.352Z,70.13
2023-01-13T15:49:44.531Z,70.35
2023-01-13T15:51:49.103Z,70.18
2023-01-13T15:53:52.185Z,70.13
2023-01-13T15:55:58.252Z,70.42
2023-01-13T15:58:02.231Z,70.53
2023-01-13T16:00:13.385Z,70.68
2023-01-13T16:02:18.445Z,70.08
2023-01-13T16:04:21.078Z,69.44
2023-01-13T16:06:29.997Z,69.61
2023-01-13T16:08:34.414Z,69.64
2023-01-13T16:10:37.047Z,70.17
2023-01-13T16:12:39.700Z,69.99
2023-01-13T16:14:42.399Z,69.32
2023-01-13T16:16:45.095Z,69.57
2023-01-13T16:18:48.271Z,69.58
2023-01-13T16:20:55.399Z,68.76
2023-01-13T16:22:58.036Z,69.25
2023-01-13T16:25:00.672Z,69.04
2023-01-13T16:27:16.102Z,69.00
2023-01-13T16:29:18.879Z,69.26
2023-01-13T16:31:29.280Z,69.51
2023-01-13T16:33:31.987Z,69.63
2023-01-13T16:35:35.491Z,69.26
2023-01-13T16:37:49.781Z,68.92
2023-01-13T16:39:53.424Z,68.81
2023-01-13T16:41:56.769Z,69.15
2023-01-13T16:44:06.195Z,69.27
2023-01-13T16:46:38.245Z,68.90
2023-01-13T16:48:40.868Z,68.90
2023-01-13T16:50:43.499Z,68.99
2023-01-13T16:52:46.233Z,68.64
2023-01-13T16:54:48.901Z,68.26
2023-01-13T16:56:51.563Z,68.34
2023-01-13T16:58:56.961Z,68.75
2023-01-13T17:00:59.750Z,69.09
2023-01-13T17:03:03.013Z,68.89
2023-01-13T17:05:06.585Z,68.71
2023-01-13T17:07:11.040Z,69.09
2023-01-13T17:09:22.717Z,69.36
2023-01-13T17:11:25.420Z,68.41
2023-01-13T17:13:28.049Z,69.18
2023-01-13T17:15:30.726Z,68.68
2023-01-13T17:17:34.018Z,68.95
2023-01-13T17:19:36.605Z,68.61
2023-01-13T17:21:39.239Z,68.38
2023-01-13T17:23:42.307Z,69.07
2023-01-13T17:25:44.887Z,68.46
2023-01-13T17:27:47.754Z,68.96
2023-01-13T17:29:50.830Z,67.69
2023-01-13T17:31:53.715Z,67.87
2023-01-13T17:33:56.481Z,68.64
2023-01-13T17:35:59.107Z,68.23
2023-01-13T17:38:02.293Z,67.92
2023-01-13T17:40:05.542Z,68.44
2023-01-13T17:42:08.106Z,68.14
2023-01-13T17:44:45.088Z,67.37
2023-01-13T17:46:57.632Z,67.74
2023-01-13T17:49:00.295Z,67.73
2023-01-13T17:51:03.775Z,68.41
2023-01-13T17:53:06.490Z,68.58
2023-01-13T17:55:09.423Z,69.33
2023-01-13T17:57:11.978Z,68.46
2023-01-13T17:59:17.395Z,69.47
2023-01-13T18:01:22.287Z,69.00
2023-01-13T18:03:24.977Z,69.51
2023-01-13T18:05:28.144Z,69.80
2023-01-13T18:07:30.861Z,69.20
2023-01-13T18:09:33.668Z,69.53
2023-01-13T18:11:36.634Z,69.18
2023-01-13T18:13:43.515Z,69.50
2023-01-13T18:15:46.305Z,69.68
2023-01-13T18:17:48.937Z,70.36
2023-01-13T18:20:10.336Z,69.91
2023-01-13T18:22:46.202Z,70.41
2023-01-13T18:25:07.321Z,70.93
2023-01-13T18:27:24.722Z,71.10
2023-01-13T18:29:27.554Z,71.69
2023-01-13T18:31:30.387Z,71.73
2023-01-13T18:33:32.980Z,71.79
2023-01-13T18:35:40.175Z,71.90
2023-01-13T18:37:43.177Z,71.86
2023-01-13T18:39:45.925Z,72.47
2023-01-13T18:42:07.182Z,72.12
2023-01-13T18:44:09.856Z,71.81
2023-01-13T18:46:12.595Z,72.50
2023-01-13T18:48:16.328Z,71.54
2023-01-13T18:50:19.210Z,71.89
2023-01-13T18:52:24.178Z,73.00
2023-01-13T18:54:27.023Z,71.82
2023-01-13T18:56:31.361Z,72.48
2023-01-13T18:58:34.030Z,72.24
2023-01-13T19:00:37.918Z,72.12
2023-01-13T19:02:41.132Z,71.84
2023-01-13T19:04:44.221Z,72.91
2023-01-13T19:06:50.554Z,72.80
2023-01-13T19:08:56.371Z,72.42
2023-01-13T19:11:07.129Z,72.25
2023-01-13T19:13:09.745Z,72.49
2023-01-13T19:15:12.618Z,72.78
2023-01-13T19:17:16.330Z,73.02
2023-01-13T19:19:18.999Z,72.78
2023-01-13T19:21:21.803Z,72.53
2023-01-13T19:23:24.555Z,72.34
2023-01-13T19:25:27.439Z,72.75
2023-01-13T19:27:30.682Z,73.51
2023-01-13T19:29:33.992Z,74.11
2023-01-13T19:31:37.133Z,73.47
2023-01-13T19:33:40.839Z,73.94
2023-01-13T19:35:43.823Z,74.03
2023-01-13T19:37:47.015Z,73.63
2023-01-13T19:39:49.741Z,75.07
2023-01-13T19:42:28.381Z,74.60
2023-01-13T19:44:49.650Z,74.95
2023-01-13T19:46:52.217Z,74.48
2023-01-13T19:48:54.850Z,74.66
2023-01-13T19:50:59.405Z,74.97
2023-01-13T19:53:02.051Z,74.64
2023-01-13T19:55:05.088Z,74.85
2023-01-13T19:57:08.030Z,75.19
2023-01-13T19:59:13.595Z,75.28
2023-01-13T20:01:16.435Z,75.41
2023-01-13T20:03:23.897Z,76.11
2023-01-13T20:05:27.535Z,76.17
2023-01-13T20:07:31.571Z,76.27
2023-01-13T20:09:36.314Z,76.90
2023-01-13T20:11:39.230Z,77.31
2023-01-13T20:13:41.782Z,77.33
2023-01-13T20:15:44.599Z,77.06
2023-01-13T20:17:47.754Z,78.21
2023-01-13T20:19:50.373Z,78.58
2023-01-13T20:21:53.050Z,77.59
2023-01-13T20:23:56.933Z,78.19
2023-01-13T20:26:00.356Z,78.41
2023-01-13T20:28:03.124Z,79.22
2023-01-13T20:30:09.694Z,79.46
2023-01-13T20:32:12.623Z,79.79
2023-01-13T20:34:16.135Z,80.09
2023-01-13T20:36:39.607Z,80.15
2023-01-13T20:38:42.244Z,80.34
2023-01-13T20:40:44.910Z,80.16
2023-01-13T20:42:47.653Z,80.82
2023-01-13T20:44:50.410Z,80.68
2023-01-13T20:46:54.775Z,81.18
2023-01-13T20:48:57.524Z,81.08
2023-01-13T20:51:00.819Z,80.60
2023-01-13T20:53:03.490Z,80.83
2023-01-13T20:55:07.808Z,80.96
2023-01-13T20:57:11.243Z,81.70
2023-01-13T20:59:14.200Z,81.33
2023-01-13T21:01:16.888Z,81.48
2023-01-13T21:03:19.683Z,81.69
2023-01-13T21:05:22.409Z,81.82
2023-01-13T21:07:25.203Z,81.58
2023-01-13T21:09:28.027Z,82.02
2023-01-13T21:11:49.352Z,81.91
2023-01-13T21:14:10.676Z,82.04
2023-01-13T21:16:13.418Z,81.43
2023-01-13T21:18:34.854Z,81.63
2023-01-13T21:20:39.417Z,81.45
2023-01-13T21:22:46.998Z,81.90
2023-01-13T21:24:49.763Z,81.24
2023-01-13T21:27:01.299Z,81.75
2023-01-13T21:29:04.526Z,81.48
2023-01-13T21:31:09.413Z,81.88
2023-01-13T21:33:15.306Z,81.43
2023-01-13T21:35:17.913Z,81.71
2023-01-13T21:37:20.853Z,81.96
2023-01-13T21:39:23.466Z,81.41
2023-01-13T21:41:45.372Z,81.51
2023-01-13T21:44:06.813Z,81.88
2023-01-13T21:46:37.067Z,81.78
2023-01-13T21:48:39.811Z,81.80
2023-01-13T21:50:42.440Z,81.84
2023-01-13T21:52:45.981Z,82.10
2023-01-13T21:55:07.129Z,82.00
2023-01-13T21:57:09.735Z,81.61
2023-01-13T21:59:12.389Z,81.85
2023-01-13T22:01:25.347Z,81.79
2023-01-13T22:03:28.005Z,81.54
2023-01-13T22:05:30.779Z,82.15
2023-01-13T22:07:35.091Z,82.30
2023-01-13T22:09:37.799Z,82.49
2023-01-13T22:11:40.529Z,81.73
2023-01-13T22:14:01.640Z,82.50
2023-01-13T22:16:04.962Z,82.15
2023-01-13T22:18:07.628Z,82.57
2023-01-13T22:20:12.294Z,82.59
2023-01-13T22:22:18.749Z,82.45
2023-01-13T22:24:21.539Z,82.61
2023-01-13T22:26:24.117Z,82.67
2023-01-13T22:28:34.191Z,82.77
2023-01-13T22:30:36.931Z,83.21
2023-01-13T22:32:40.250Z,82.52
2023-01-13T22:34:43.414Z,82.69
2023-01-13T22:36:46.035Z,82.82
2023-01-13T22:38:48.713Z,83.08
2023-01-13T22:40:58.848Z,83.10
2023-01-13T22:43:01.543Z,82.90
2023-01-13T22:45:05.655Z,83.40
2023-01-13T22:47:09.915Z,83.37
2023-01-13T22:49:12.874Z,83.83
2023-01-13T22:51:18.818Z,83.58
2023-01-13T22:53:22.249Z,83.59
2023-01-13T22:55:24.969Z,83.36
2023-01-13T22:57:36.107Z,83.28
2023-01-13T22:59:41.402Z,83.10
2023-01-13T23:01:44.150Z,83.20
2023-01-13T23:03:50.019Z,83.60
2023-01-13T23:05:56.761Z,83.43
2023-01-13T23:07:59.335Z,83.56
2023-01-13T23:10:02.644Z,83.81
2023-01-13T23:12:06.197Z,83.50
2023-01-13T23:14:11.643Z,83.57
2023-01-13T23:16:17.148Z,83.60
2023-01-13T23:18:19.819Z,83.52
2023-01-13T23:20:22.836Z,83.77
2023-01-13T23:22:25.587Z,84.13
2023-01-13T23:24:29.439Z,83.80
2023-01-13T23:26:33.217Z,84.06
2023-01-13T23:28:37.860Z,84.28
2023-01-13T23:30:40.634Z,84.37
2023-01-13T23:32:43.245Z,84.66
2023-01-13T23:34:46.046Z,84.30
2023-01-13T23:36:48.761Z,84.54
2023-01-13T23:38:52.119Z,84.66
2023-01-13T23:40:54.961Z,84.73
2023-01-13T23:42:57.550Z,84.72
2023-01-13T23:45:00.165Z,85.25
2023-01-13T23:47:02.822Z,85.21
2023-01-13T23:49:05.474Z,84.94
2023-01-13T23:51:11.353Z,84.95
2023-01-13T23:53:13.985Z,84.88
2023-01-13T23:55:16.667Z,85.12
2023-01-13T23:57:19.324Z,85.14
2023-01-13T23:59:22.146Z,85.12
